sensor_id;sensor_type;location;lat;lon;timestamp;P1;durP1;ratioP1;P2;durP2;ratioP2
18867;SDS011;9563;49.240;9.088;2023-08-07T04:01:26;6.30;;;2.10;;
18867;SDS011;9563;49.240;9.088;2023-08-07T04:03:53;6.80;;;2.07;;
18867;SDS011;9563;49.240;9.088;2023-08-07T04:06:20;9.83;;;2.00;;
18867;SDS011;9563;49.240;9.088;2023-08-07T04:08:47;9.70;;;2.40;;
18867;SDS011;9563;49.240;9.088;2023-08-07T04:11:14;5.90;;;2.10;;
18867;SDS011;9563;49.240;9.088;2023-08-07T04:13:40;6.47;;;2.00;;
18867;SDS011;9563;49.240;9.088;2023-08-07T04:16:07;4.30;;;2.10;;
18867;SDS011;9563;49.240;9.088;2023-08-07T04:18:36;5.23;;;2.40;;
18867;SDS011;9563;49.240;9.088;2023-08-07T04:21:03;6.43;;;2.43;;
18867;SDS011;9563;49.240;9.088;2023-08-07T04:23:30;8.67;;;2.43;;
18867;SDS011;9563;49.240;9.088;2023-08-07T04:25:57;8.10;;;2.27;;
18867;SDS011;9563;49.240;9.088;2023-08-07T04:28:27;4.10;;;2.20;;
18867;SDS011;9563;49.240;9.088;2023-08-07T04:30:55;5.77;;;2.47;;
18867;SDS011;9563;49.240;9.088;2023-08-07T04:33:21;7.18;;;2.65;;
18867;SDS011;9563;49.240;9.088;2023-08-07T04:35:50;9.10;;;2.27;;
18867;SDS011;9563;49.240;9.088;2023-08-07T04:38:17;5.53;;;2.53;;
18867;SDS011;9563;49.240;9.088;2023-08-07T04:40:44;5.77;;;2.13;;
18867;SDS011;9563;49.240;9.088;2023-08-07T04:43:12;6.83;;;2.37;;
18867;SDS011;9563;49.240;9.088;2023-08-07T04:45:39;7.17;;;1.90;;
18867;SDS011;9563;49.240;9.088;2023-08-07T04:48:06;5.00;;;2.10;;
18867;SDS011;9563;49.240;9.088;2023-08-07T04:50:33;6.43;;;2.08;;
18867;SDS011;9563;49.240;9.088;2023-08-07T04:53:02;10.40;;;2.43;;
18867;SDS011;9563;49.240;9.088;2023-08-07T04:55:29;5.93;;;2.00;;
18867;SDS011;9563;49.240;9.088;2023-08-07T04:57:56;8.47;;;2.10;;
18867;SDS011;9563;49.240;9.088;2023-08-07T05:00:23;8.63;;;2.20;;
18867;SDS011;9563;49.240;9.088;2023-08-07T05:02:50;5.93;;;2.07;;
18867;SDS011;9563;49.240;9.088;2023-08-07T05:05:17;8.47;;;2.40;;
18867;SDS011;9563;49.240;9.088;2023-08-07T05:07:45;8.87;;;2.00;;
18867;SDS011;9563;49.240;9.088;2023-08-07T05:10:14;5.53;;;2.43;;
18867;SDS011;9563;49.240;9.088;2023-08-07T05:12:41;10.83;;;2.50;;
18867;SDS011;9563;49.240;9.088;2023-08-07T05:15:08;14.27;;;2.37;;
18867;SDS011;9563;49.240;9.088;2023-08-07T05:17:35;7.33;;;2.57;;
18867;SDS011;9563;49.240;9.088;2023-08-07T05:20:02;5.80;;;2.07;;
18867;SDS011;9563;49.240;9.088;2023-08-07T05:22:30;6.13;;;2.20;;
18867;SDS011;9563;49.240;9.088;2023-08-07T05:24:57;10.30;;;2.37;;
18867;SDS011;9563;49.240;9.088;2023-08-07T05:27:25;6.00;;;2.33;;
18867;SDS011;9563;49.240;9.088;2023-08-07T05:29:52;7.53;;;2.05;;
18867;SDS011;9563;49.240;9.088;2023-08-07T05:32:19;5.77;;;2.37;;
18867;SDS011;9563;49.240;9.088;2023-08-07T05:34:46;4.77;;;2.30;;
18867;SDS011;9563;49.240;9.088;2023-08-07T05:37:12;9.33;;;2.50;;
18867;SDS011;9563;49.240;9.088;2023-08-07T05:39:39;4.53;;;1.80;;
18867;SDS011;9563;49.240;9.088;2023-08-07T05:42:06;7.40;;;2.30;;
18867;SDS011;9563;49.240;9.088;2023-08-07T05:44:36;6.53;;;2.40;;
18867;SDS011;9563;49.240;9.088;2023-08-07T05:47:03;8.07;;;2.37;;
18867;SDS011;9563;49.240;9.088;2023-08-07T05:49:31;9.57;;;2.13;;
18867;SDS011;9563;49.240;9.088;2023-08-07T05:51:57;5.17;;;2.33;;
18867;SDS011;9563;49.240;9.088;2023-08-07T05:54:24;10.87;;;2.70;;
18867;SDS011;9563;49.240;9.088;2023-08-07T05:56:51;6.07;;;2.67;;
18867;SDS011;9563;49.240;9.088;2023-08-07T05:59:18;8.20;;;2.30;;
18867;SDS011;9563;49.240;9.088;2023-08-07T06:01:47;8.57;;;3.33;;
18867;SDS011;9563;49.240;9.088;2023-08-07T06:04:14;6.80;;;2.10;;
18867;SDS011;9563;49.240;9.088;2023-08-07T06:06:41;10.90;;;2.33;;
18867;SDS011;9563;49.240;9.088;2023-08-07T06:09:07;8.07;;;2.10;;
18867;SDS011;9563;49.240;9.088;2023-08-07T06:11:35;3.72;;;2.28;;
18867;SDS011;9563;49.240;9.088;2023-08-07T06:14:00;4.43;;;2.15;;
18867;SDS011;9563;49.240;9.088;2023-08-07T06:16:27;10.40;;;2.50;;
18867;SDS011;9563;49.240;9.088;2023-08-07T06:18:56;7.22;;;2.80;;
18867;SDS011;9563;49.240;9.088;2023-08-07T06:21:23;8.87;;;2.20;;
18867;SDS011;9563;49.240;9.088;2023-08-07T06:23:50;7.60;;;1.95;;
18867;SDS011;9563;49.240;9.088;2023-08-07T06:26:18;8.53;;;2.80;;
18867;SDS011;9563;49.240;9.088;2023-08-07T06:28:44;7.10;;;2.17;;
18867;SDS011;9563;49.240;9.088;2023-08-07T06:31:11;5.53;;;2.37;;
18867;SDS011;9563;49.240;9.088;2023-08-07T06:33:41;6.70;;;2.60;;
18867;SDS011;9563;49.240;9.088;2023-08-07T06:36:09;8.00;;;2.90;;
18867;SDS011;9563;49.240;9.088;2023-08-07T06:38:36;2.43;;;1.90;;
18867;SDS011;9563;49.240;9.088;2023-08-07T06:41:05;6.33;;;2.23;;
18867;SDS011;9563;49.240;9.088;2023-08-07T06:43:32;6.07;;;2.03;;
18867;SDS011;9563;49.240;9.088;2023-08-07T06:45:58;8.27;;;2.27;;
18867;SDS011;9563;49.240;9.088;2023-08-07T06:48:25;4.28;;;1.98;;
18867;SDS011;9563;49.240;9.088;2023-08-07T06:50:52;4.20;;;1.77;;
18867;SDS011;9563;49.240;9.088;2023-08-07T06:53:20;5.60;;;2.40;;
18867;SDS011;9563;49.240;9.088;2023-08-07T06:55:47;8.82;;;2.30;;
18867;SDS011;9563;49.240;9.088;2023-08-07T06:58:14;5.33;;;2.13;;
18867;SDS011;9563;49.240;9.088;2023-08-07T07:00:41;5.57;;;2.22;;
18867;SDS011;9563;49.240;9.088;2023-08-07T07:03:08;6.50;;;2.40;;
18867;SDS011;9563;49.240;9.088;2023-08-07T07:05:35;4.87;;;2.37;;
18867;SDS011;9563;49.240;9.088;2023-08-07T07:08:02;7.63;;;3.13;;
18867;SDS011;9563;49.240;9.088;2023-08-07T07:10:30;10.00;;;2.30;;
18867;SDS011;9563;49.240;9.088;2023-08-07T07:12:57;3.17;;;2.22;;
18867;SDS011;9563;49.240;9.088;2023-08-07T07:15:24;4.70;;;2.00;;
18867;SDS011;9563;49.240;9.088;2023-08-07T07:17:51;6.13;;;2.15;;
18867;SDS011;9563;49.240;9.088;2023-08-07T07:20:18;8.65;;;2.35;;
18867;SDS011;9563;49.240;9.088;2023-08-07T07:22:45;3.90;;;2.47;;
18867;SDS011;9563;49.240;9.088;2023-08-07T07:25:11;12.60;;;2.45;;
18867;SDS011;9563;49.240;9.088;2023-08-07T07:27:40;7.70;;;1.90;;
18867;SDS011;9563;49.240;9.088;2023-08-07T07:30:07;7.53;;;2.22;;
18867;SDS011;9563;49.240;9.088;2023-08-07T07:32:35;2.80;;;1.80;;
18867;SDS011;9563;49.240;9.088;2023-08-07T07:35:01;7.07;;;2.33;;
18867;SDS011;9563;49.240;9.088;2023-08-07T07:37:29;5.75;;;1.98;;
18867;SDS011;9563;49.240;9.088;2023-08-07T07:39:56;7.70;;;1.88;;
18867;SDS011;9563;49.240;9.088;2023-08-07T07:42:23;3.70;;;1.75;;
18867;SDS011;9563;49.240;9.088;2023-08-07T07:44:51;6.25;;;1.63;;
18867;SDS011;9563;49.240;9.088;2023-08-07T07:47:18;10.38;;;2.63;;
18867;SDS011;9563;49.240;9.088;2023-08-07T07:49:46;11.82;;;2.53;;
18867;SDS011;9563;49.240;9.088;2023-08-07T07:52:13;4.68;;;1.80;;
18867;SDS011;9563;49.240;9.088;2023-08-07T07:54:40;3.95;;;2.03;;
18867;SDS011;9563;49.240;9.088;2023-08-07T07:57:07;3.50;;;1.75;;
18867;SDS011;9563;49.240;9.088;2023-08-07T07:59:34;7.13;;;2.00;;
18867;SDS011;9563;49.240;9.088;2023-08-07T08:02:02;8.00;;;2.20;;
18867;SDS011;9563;49.240;9.088;2023-08-07T08:04:29;5.93;;;1.85;;
18867;SDS011;9563;49.240;9.088;2023-08-07T08:06:56;7.13;;;2.30;;
18867;SDS011;9563;49.240;9.088;2023-08-07T08:09:24;5.15;;;1.65;;
18867;SDS011;9563;49.240;9.088;2023-08-07T08:11:51;8.55;;;2.28;;
18867;SDS011;9563;49.240;9.088;2023-08-07T08:14:18;6.28;;;1.80;;
18867;SDS011;9563;49.240;9.088;2023-08-07T08:16:45;5.65;;;1.77;;
18867;SDS011;9563;49.240;9.088;2023-08-07T08:19:13;7.65;;;2.30;;
18867;SDS011;9563;49.240;9.088;2023-08-07T08:21:41;7.40;;;2.00;;
18867;SDS011;9563;49.240;9.088;2023-08-07T08:24:08;5.50;;;1.63;;
18867;SDS011;9563;49.240;9.088;2023-08-07T08:26:35;8.30;;;2.10;;
18867;SDS011;9563;49.240;9.088;2023-08-07T08:29:02;4.10;;;1.83;;
18867;SDS011;9563;49.240;9.088;2023-08-07T08:31:29;4.10;;;1.75;;
18867;SDS011;9563;49.240;9.088;2023-08-07T08:33:56;5.68;;;2.08;;
18867;SDS011;9563;49.240;9.088;2023-08-07T08:36:25;5.28;;;2.00;;
18867;SDS011;9563;49.240;9.088;2023-08-07T08:38:51;5.35;;;2.00;;
18867;SDS011;9563;49.240;9.088;2023-08-07T08:41:19;7.40;;;2.22;;
18867;SDS011;9563;49.240;9.088;2023-08-07T08:43:47;8.43;;;2.08;;
18867;SDS011;9563;49.240;9.088;2023-08-07T08:46:17;3.63;;;1.85;;
18867;SDS011;9563;49.240;9.088;2023-08-07T08:48:47;4.57;;;2.03;;
18867;SDS011;9563;49.240;9.088;2023-08-07T08:51:16;3.50;;;1.83;;
18867;SDS011;9563;49.240;9.088;2023-08-07T08:53:45;8.57;;;1.80;;
18867;SDS011;9563;49.240;9.088;2023-08-07T08:56:14;3.50;;;1.60;;
18867;SDS011;9563;49.240;9.088;2023-08-07T08:58:41;5.50;;;1.88;;
18867;SDS011;9563;49.240;9.088;2023-08-07T09:01:09;5.32;;;1.88;;
18867;SDS011;9563;49.240;9.088;2023-08-07T09:03:37;5.07;;;1.90;;
18867;SDS011;9563;49.240;9.088;2023-08-07T09:06:05;8.23;;;2.03;;
18867;SDS011;9563;49.240;9.088;2023-08-07T09:08:33;3.08;;;1.58;;
18867;SDS011;9563;49.240;9.088;2023-08-07T09:11:02;6.60;;;1.92;;
18867;SDS011;9563;49.240;9.088;2023-08-07T09:13:29;5.63;;;1.60;;
18867;SDS011;9563;49.240;9.088;2023-08-07T09:15:59;4.32;;;2.28;;
18867;SDS011;9563;49.240;9.088;2023-08-07T09:18:27;9.35;;;2.08;;
18867;SDS011;9563;49.240;9.088;2023-08-07T09:20:55;5.22;;;1.60;;
18867;SDS011;9563;49.240;9.088;2023-08-07T09:23:23;5.63;;;1.60;;
18867;SDS011;9563;49.240;9.088;2023-08-07T09:25:58;6.40;;;2.00;;
18867;SDS011;9563;49.240;9.088;2023-08-07T09:28:28;4.53;;;2.10;;
18867;SDS011;9563;49.240;9.088;2023-08-07T09:30:56;5.15;;;1.90;;
18867;SDS011;9563;49.240;9.088;2023-08-07T09:33:24;2.97;;;1.50;;
18867;SDS011;9563;49.240;9.088;2023-08-07T09:35:51;5.97;;;1.83;;
18867;SDS011;9563;49.240;9.088;2023-08-07T09:38:18;2.80;;;1.33;;
18867;SDS011;9563;49.240;9.088;2023-08-07T09:40:48;6.03;;;1.40;;
18867;SDS011;9563;49.240;9.088;2023-08-07T09:43:20;4.60;;;1.90;;
18867;SDS011;9563;49.240;9.088;2023-08-07T09:45:49;5.15;;;1.75;;
18867;SDS011;9563;49.240;9.088;2023-08-07T09:48:24;4.97;;;1.48;;
18867;SDS011;9563;49.240;9.088;2023-08-07T09:50:52;4.25;;;1.70;;
18867;SDS011;9563;49.240;9.088;2023-08-07T09:53:24;5.47;;;1.55;;
18867;SDS011;9563;49.240;9.088;2023-08-07T09:55:51;4.85;;;1.40;;
18867;SDS011;9563;49.240;9.088;2023-08-07T09:58:18;4.05;;;1.50;;
18867;SDS011;9563;49.240;9.088;2023-08-07T10:00:46;3.58;;;1.45;;
18867;SDS011;9563;49.240;9.088;2023-08-07T10:03:15;4.43;;;1.63;;
18867;SDS011;9563;49.240;9.088;2023-08-07T10:05:43;4.47;;;1.73;;
18867;SDS011;9563;49.240;9.088;2023-08-07T10:08:10;2.80;;;1.30;;
18867;SDS011;9563;49.240;9.088;2023-08-07T10:10:37;6.60;;;1.45;;
18867;SDS011;9563;49.240;9.088;2023-08-07T10:13:05;4.10;;;1.58;;
18867;SDS011;9563;49.240;9.088;2023-08-07T10:15:32;4.00;;;1.40;;
18867;SDS011;9563;49.240;9.088;2023-08-07T10:18:01;3.63;;;1.60;;
18867;SDS011;9563;49.240;9.088;2023-08-07T10:20:28;2.95;;;1.20;;
18867;SDS011;9563;49.240;9.088;2023-08-07T10:22:56;5.10;;;1.60;;
18867;SDS011;9563;49.240;9.088;2023-08-07T10:25:26;5.00;;;1.50;;
18867;SDS011;9563;49.240;9.088;2023-08-07T10:27:55;3.38;;;1.67;;
18867;SDS011;9563;49.240;9.088;2023-08-07T10:30:25;7.30;;;1.67;;
18867;SDS011;9563;49.240;9.088;2023-08-07T10:32:53;3.08;;;1.77;;
18867;SDS011;9563;49.240;9.088;2023-08-07T10:35:26;5.82;;;1.67;;
18867;SDS011;9563;49.240;9.088;2023-08-07T10:37:59;3.03;;;1.42;;
18867;SDS011;9563;49.240;9.088;2023-08-07T10:40:31;5.95;;;1.70;;
18867;SDS011;9563;49.240;9.088;2023-08-07T10:42:59;5.25;;;1.67;;
18867;SDS011;9563;49.240;9.088;2023-08-07T10:45:39;5.35;;;1.98;;
18867;SDS011;9563;49.240;9.088;2023-08-07T10:48:06;7.32;;;1.60;;
18867;SDS011;9563;49.240;9.088;2023-08-07T10:50:35;6.63;;;1.65;;
18867;SDS011;9563;49.240;9.088;2023-08-07T10:53:18;3.00;;;1.58;;
18867;SDS011;9563;49.240;9.088;2023-08-07T10:55:46;7.65;;;1.52;;
18867;SDS011;9563;49.240;9.088;2023-08-07T10:58:23;5.10;;;1.63;;
18867;SDS011;9563;49.240;9.088;2023-08-07T11:00:52;6.22;;;1.90;;
18867;SDS011;9563;49.240;9.088;2023-08-07T11:03:40;4.50;;;1.63;;
18867;SDS011;9563;49.240;9.088;2023-08-07T11:06:10;2.95;;;1.33;;
18867;SDS011;9563;49.240;9.088;2023-08-07T11:08:37;5.60;;;2.47;;
18867;SDS011;9563;49.240;9.088;2023-08-07T11:11:04;3.13;;;2.00;;
18867;SDS011;9563;49.240;9.088;2023-08-07T11:13:32;5.93;;;1.73;;
18867;SDS011;9563;49.240;9.088;2023-08-07T11:15:59;3.92;;;1.58;;
18867;SDS011;9563;49.240;9.088;2023-08-07T11:18:28;4.05;;;1.60;;
18867;SDS011;9563;49.240;9.088;2023-08-07T11:20:55;3.97;;;1.63;;
18867;SDS011;9563;49.240;9.088;2023-08-07T11:23:26;5.32;;;1.92;;
18867;SDS011;9563;49.240;9.088;2023-08-07T11:25:54;3.80;;;1.30;;
18867;SDS011;9563;49.240;9.088;2023-08-07T11:28:21;2.20;;;1.25;;
18867;SDS011;9563;49.240;9.088;2023-08-07T11:30:49;6.10;;;1.77;;
18867;SDS011;9563;49.240;9.088;2023-08-07T11:33:17;3.13;;;1.80;;
18867;SDS011;9563;49.240;9.088;2023-08-07T11:35:44;3.17;;;1.70;;
18867;SDS011;9563;49.240;9.088;2023-08-07T11:38:11;4.93;;;1.67;;
18867;SDS011;9563;49.240;9.088;2023-08-07T11:40:40;4.47;;;1.40;;
18867;SDS011;9563;49.240;9.088;2023-08-07T11:43:07;4.47;;;1.55;;
18867;SDS011;9563;49.240;9.088;2023-08-07T11:45:34;3.75;;;1.30;;
18867;SDS011;9563;49.240;9.088;2023-08-07T11:48:01;6.20;;;2.42;;
18867;SDS011;9563;49.240;9.088;2023-08-07T11:50:28;4.57;;;1.30;;
18867;SDS011;9563;49.240;9.088;2023-08-07T11:52:55;3.60;;;1.30;;
18867;SDS011;9563;49.240;9.088;2023-08-07T11:55:25;3.67;;;1.63;;
18867;SDS011;9563;49.240;9.088;2023-08-07T11:57:56;10.80;;;1.80;;
18867;SDS011;9563;49.240;9.088;2023-08-07T12:00:24;2.67;;;1.73;;
18867;SDS011;9563;49.240;9.088;2023-08-07T12:02:52;5.00;;;1.70;;
18867;SDS011;9563;49.240;9.088;2023-08-07T12:05:19;6.13;;;1.92;;
18867;SDS011;9563;49.240;9.088;2023-08-07T12:07:46;3.15;;;2.10;;
18867;SDS011;9563;49.240;9.088;2023-08-07T12:10:14;7.13;;;2.08;;
18867;SDS011;9563;49.240;9.088;2023-08-07T12:12:41;3.92;;;1.95;;
18867;SDS011;9563;49.240;9.088;2023-08-07T12:15:11;3.70;;;1.60;;
18867;SDS011;9563;49.240;9.088;2023-08-07T12:17:38;3.85;;;1.80;;
18867;SDS011;9563;49.240;9.088;2023-08-07T12:20:05;10.70;;;2.05;;
18867;SDS011;9563;49.240;9.088;2023-08-07T12:22:35;4.53;;;2.03;;
18867;SDS011;9563;49.240;9.088;2023-08-07T12:25:03;3.00;;;1.85;;
18867;SDS011;9563;49.240;9.088;2023-08-07T12:27:30;2.55;;;1.75;;
18867;SDS011;9563;49.240;9.088;2023-08-07T12:29:58;6.53;;;2.00;;
18867;SDS011;9563;49.240;9.088;2023-08-07T12:32:26;6.78;;;2.80;;
18867;SDS011;9563;49.240;9.088;2023-08-07T12:34:53;6.18;;;2.22;;
18867;SDS011;9563;49.240;9.088;2023-08-07T12:37:20;7.20;;;2.20;;
18867;SDS011;9563;49.240;9.088;2023-08-07T12:39:47;6.38;;;1.85;;
18867;SDS011;9563;49.240;9.088;2023-08-07T12:42:14;3.50;;;1.77;;
18867;SDS011;9563;49.240;9.088;2023-08-07T12:44:41;3.83;;;2.00;;
18867;SDS011;9563;49.240;9.088;2023-08-07T12:47:09;3.53;;;1.60;;
18867;SDS011;9563;49.240;9.088;2023-08-07T12:49:37;3.28;;;1.55;;
18867;SDS011;9563;49.240;9.088;2023-08-07T12:52:04;4.88;;;1.85;;
18867;SDS011;9563;49.240;9.088;2023-08-07T12:54:31;6.28;;;1.83;;
18867;SDS011;9563;49.240;9.088;2023-08-07T12:56:58;5.65;;;1.50;;
18867;SDS011;9563;49.240;9.088;2023-08-07T12:59:25;3.25;;;1.67;;
18867;SDS011;9563;49.240;9.088;2023-08-07T13:01:52;4.95;;;2.25;;
18867;SDS011;9563;49.240;9.088;2023-08-07T13:04:19;3.60;;;1.40;;
18867;SDS011;9563;49.240;9.088;2023-08-07T13:06:47;3.47;;;1.80;;
18867;SDS011;9563;49.240;9.088;2023-08-07T13:09:14;4.35;;;1.70;;
18867;SDS011;9563;49.240;9.088;2023-08-07T13:11:41;4.53;;;1.70;;
18867;SDS011;9563;49.240;9.088;2023-08-07T13:14:08;4.10;;;1.75;;
18867;SDS011;9563;49.240;9.088;2023-08-07T13:16:35;4.43;;;1.70;;
18867;SDS011;9563;49.240;9.088;2023-08-07T13:19:02;5.53;;;2.00;;
18867;SDS011;9563;49.240;9.088;2023-08-07T13:21:28;3.58;;;1.60;;
18867;SDS011;9563;49.240;9.088;2023-08-07T13:23:57;7.65;;;1.67;;
18867;SDS011;9563;49.240;9.088;2023-08-07T13:26:24;4.75;;;1.60;;
18867;SDS011;9563;49.240;9.088;2023-08-07T13:28:51;5.22;;;1.48;;
18867;SDS011;9563;49.240;9.088;2023-08-07T13:31:18;6.32;;;1.30;;
18867;SDS011;9563;49.240;9.088;2023-08-07T13:33:44;2.50;;;1.42;;
18867;SDS011;9563;49.240;9.088;2023-08-07T13:36:12;6.63;;;1.83;;
18867;SDS011;9563;49.240;9.088;2023-08-07T13:38:38;1.88;;;1.50;;
18867;SDS011;9563;49.240;9.088;2023-08-07T13:41:07;3.72;;;1.35;;
18867;SDS011;9563;49.240;9.088;2023-08-07T13:43:34;4.47;;;1.35;;
18867;SDS011;9563;49.240;9.088;2023-08-07T13:46:00;2.72;;;1.52;;
18867;SDS011;9563;49.240;9.088;2023-08-07T13:48:27;2.22;;;1.30;;
18867;SDS011;9563;49.240;9.088;2023-08-07T13:50:57;4.93;;;1.48;;
18867;SDS011;9563;49.240;9.088;2023-08-07T13:53:25;2.20;;;1.20;;
18867;SDS011;9563;49.240;9.088;2023-08-07T13:55:54;3.50;;;1.33;;
18867;SDS011;9563;49.240;9.088;2023-08-07T13:58:22;3.10;;;1.77;;
18867;SDS011;9563;49.240;9.088;2023-08-07T14:00:49;6.15;;;1.70;;
18867;SDS011;9563;49.240;9.088;2023-08-07T14:03:16;5.63;;;1.40;;
18867;SDS011;9563;49.240;9.088;2023-08-07T14:05:43;2.85;;;1.45;;
18867;SDS011;9563;49.240;9.088;2023-08-07T14:08:10;2.33;;;1.40;;
18867;SDS011;9563;49.240;9.088;2023-08-07T14:10:38;4.43;;;1.55;;
18867;SDS011;9563;49.240;9.088;2023-08-07T14:13:06;2.92;;;1.40;;
18867;SDS011;9563;49.240;9.088;2023-08-07T14:15:34;2.92;;;1.42;;
18867;SDS011;9563;49.240;9.088;2023-08-07T14:18:01;1.92;;;1.20;;
18867;SDS011;9563;49.240;9.088;2023-08-07T14:20:28;2.10;;;1.30;;
18867;SDS011;9563;49.240;9.088;2023-08-07T14:22:55;5.25;;;1.52;;
18867;SDS011;9563;49.240;9.088;2023-08-07T14:25:22;6.95;;;1.30;;
18867;SDS011;9563;49.240;9.088;2023-08-07T14:27:49;5.47;;;1.40;;
18867;SDS011;9563;49.240;9.088;2023-08-07T14:30:16;3.05;;;1.48;;
18867;SDS011;9563;49.240;9.088;2023-08-07T14:32:44;4.85;;;1.30;;
18867;SDS011;9563;49.240;9.088;2023-08-07T14:35:12;2.88;;;1.23;;
18867;SDS011;9563;49.240;9.088;2023-08-07T14:37:39;1.92;;;1.20;;
18867;SDS011;9563;49.240;9.088;2023-08-07T14:40:06;2.13;;;1.40;;
18867;SDS011;9563;49.240;9.088;2023-08-07T14:42:34;2.65;;;1.30;;
18867;SDS011;9563;49.240;9.088;2023-08-07T14:45:01;3.47;;;1.60;;
18867;SDS011;9563;49.240;9.088;2023-08-07T14:47:27;2.67;;;1.50;;
18867;SDS011;9563;49.240;9.088;2023-08-07T14:49:56;2.55;;;1.20;;
18867;SDS011;9563;49.240;9.088;2023-08-07T14:52:23;3.08;;;1.50;;
18867;SDS011;9563;49.240;9.088;2023-08-07T14:54:50;3.28;;;1.70;;
18867;SDS011;9563;49.240;9.088;2023-08-07T14:57:18;2.78;;;1.10;;
18867;SDS011;9563;49.240;9.088;2023-08-07T14:59:45;3.83;;;1.55;;
18867;SDS011;9563;49.240;9.088;2023-08-07T15:02:12;2.28;;;1.20;;
18867;SDS011;9563;49.240;9.088;2023-08-07T15:04:39;3.03;;;1.48;;
18867;SDS011;9563;49.240;9.088;2023-08-07T15:07:07;2.30;;;1.30;;
18867;SDS011;9563;49.240;9.088;2023-08-07T15:09:35;4.05;;;1.40;;
18867;SDS011;9563;49.240;9.088;2023-08-07T15:12:02;2.78;;;1.35;;
18867;SDS011;9563;49.240;9.088;2023-08-07T15:14:31;4.45;;;1.83;;
18867;SDS011;9563;49.240;9.088;2023-08-07T15:16:58;5.72;;;1.33;;
18867;SDS011;9563;49.240;9.088;2023-08-07T15:19:25;4.50;;;1.40;;
18867;SDS011;9563;49.240;9.088;2023-08-07T15:21:52;2.28;;;1.27;;
18867;SDS011;9563;49.240;9.088;2023-08-07T15:24:20;4.40;;;1.10;;
18867;SDS011;9563;49.240;9.088;2023-08-07T15:26:47;3.72;;;1.20;;
18867;SDS011;9563;49.240;9.088;2023-08-07T15:29:14;4.63;;;1.40;;
18867;SDS011;9563;49.240;9.088;2023-08-07T15:31:40;2.55;;;1.48;;
18867;SDS011;9563;49.240;9.088;2023-08-07T15:34:07;3.97;;;1.20;;
18867;SDS011;9563;49.240;9.088;2023-08-07T15:36:34;3.28;;;1.20;;
18867;SDS011;9563;49.240;9.088;2023-08-07T15:39:01;5.10;;;1.52;;
18867;SDS011;9563;49.240;9.088;2023-08-07T15:41:30;2.08;;;1.40;;
18867;SDS011;9563;49.240;9.088;2023-08-07T15:43:57;1.52;;;1.13;;
18867;SDS011;9563;49.240;9.088;2023-08-07T15:46:23;1.92;;;1.13;;
18867;SDS011;9563;49.240;9.088;2023-08-07T15:48:50;3.33;;;1.38;;
18867;SDS011;9563;49.240;9.088;2023-08-07T15:51:17;1.70;;;1.02;;
18867;SDS011;9563;49.240;9.088;2023-08-07T15:53:44;3.22;;;1.10;;
18867;SDS011;9563;49.240;9.088;2023-08-07T15:56:11;6.10;;;1.35;;
18867;SDS011;9563;49.240;9.088;2023-08-07T15:58:40;3.70;;;1.73;;
18867;SDS011;9563;49.240;9.088;2023-08-07T16:01:07;3.63;;;1.33;;
18867;SDS011;9563;49.240;9.088;2023-08-07T16:03:35;3.38;;;1.33;;
18867;SDS011;9563;49.240;9.088;2023-08-07T16:06:02;2.47;;;1.60;;
18867;SDS011;9563;49.240;9.088;2023-08-07T16:08:29;5.25;;;1.85;;
18867;SDS011;9563;49.240;9.088;2023-08-07T16:10:56;6.28;;;1.40;;
18867;SDS011;9563;49.240;9.088;2023-08-07T16:13:23;2.55;;;1.50;;
18867;SDS011;9563;49.240;9.088;2023-08-07T16:15:52;2.25;;;1.67;;
18867;SDS011;9563;49.240;9.088;2023-08-07T16:18:19;5.18;;;1.73;;
18867;SDS011;9563;49.240;9.088;2023-08-07T16:20:45;3.38;;;1.55;;
18867;SDS011;9563;49.240;9.088;2023-08-07T16:23:12;5.63;;;1.60;;
18867;SDS011;9563;49.240;9.088;2023-08-07T16:25:39;5.65;;;1.50;;
18867;SDS011;9563;49.240;9.088;2023-08-07T16:28:06;2.40;;;1.52;;
18867;SDS011;9563;49.240;9.088;2023-08-07T16:30:33;4.32;;;1.73;;
18867;SDS011;9563;49.240;9.088;2023-08-07T16:33:01;5.03;;;1.80;;
18867;SDS011;9563;49.240;9.088;2023-08-07T16:35:28;2.58;;;1.73;;
18867;SDS011;9563;49.240;9.088;2023-08-07T16:37:55;3.60;;;1.60;;
18867;SDS011;9563;49.240;9.088;2023-08-07T16:40:23;2.75;;;1.75;;
18867;SDS011;9563;49.240;9.088;2023-08-07T16:42:50;2.55;;;1.67;;
18867;SDS011;9563;49.240;9.088;2023-08-07T16:45:17;4.32;;;1.60;;
18867;SDS011;9563;49.240;9.088;2023-08-07T16:47:44;2.88;;;1.63;;
18867;SDS011;9563;49.240;9.088;2023-08-07T16:50:13;3.45;;;1.63;;
18867;SDS011;9563;49.240;9.088;2023-08-07T16:52:40;7.80;;;2.38;;
18867;SDS011;9563;49.240;9.088;2023-08-07T16:55:07;3.97;;;1.80;;
18867;SDS011;9563;49.240;9.088;2023-08-07T16:57:34;4.00;;;1.52;;
18867;SDS011;9563;49.240;9.088;2023-08-07T17:00:01;6.45;;;1.80;;
18867;SDS011;9563;49.240;9.088;2023-08-07T17:02:31;6.88;;;2.00;;
18867;SDS011;9563;49.240;9.088;2023-08-07T17:04:58;7.43;;;1.80;;
18867;SDS011;9563;49.240;9.088;2023-08-07T17:07:27;2.85;;;1.45;;
18867;SDS011;9563;49.240;9.088;2023-08-07T17:09:54;4.55;;;1.80;;
18867;SDS011;9563;49.240;9.088;2023-08-07T17:12:21;6.28;;;1.80;;
18867;SDS011;9563;49.240;9.088;2023-08-07T17:14:48;3.97;;;1.60;;
18867;SDS011;9563;49.240;9.088;2023-08-07T17:17:14;3.38;;;1.50;;
18867;SDS011;9563;49.240;9.088;2023-08-07T17:19:41;4.55;;;1.70;;
18867;SDS011;9563;49.240;9.088;2023-08-07T17:22:08;4.10;;;1.85;;
18867;SDS011;9563;49.240;9.088;2023-08-07T17:24:37;7.45;;;1.63;;
18867;SDS011;9563;49.240;9.088;2023-08-07T17:27:04;3.17;;;1.75;;
18867;SDS011;9563;49.240;9.088;2023-08-07T17:29:31;3.10;;;1.77;;
18867;SDS011;9563;49.240;9.088;2023-08-07T17:31:58;4.13;;;1.77;;
18867;SDS011;9563;49.240;9.088;2023-08-07T17:34:25;3.80;;;1.92;;
18867;SDS011;9563;49.240;9.088;2023-08-07T17:36:52;3.25;;;1.48;;
18867;SDS011;9563;49.240;9.088;2023-08-07T17:39:19;4.85;;;1.80;;
18867;SDS011;9563;49.240;9.088;2023-08-07T17:41:47;2.60;;;1.55;;
18867;SDS011;9563;49.240;9.088;2023-08-07T17:44:14;3.38;;;1.50;;
18867;SDS011;9563;49.240;9.088;2023-08-07T17:46:42;5.18;;;1.75;;
18867;SDS011;9563;49.240;9.088;2023-08-07T17:49:09;3.47;;;1.58;;
18867;SDS011;9563;49.240;9.088;2023-08-07T17:51:36;5.05;;;1.58;;
18867;SDS011;9563;49.240;9.088;2023-08-07T17:54:03;2.03;;;1.70;;
18867;SDS011;9563;49.240;9.088;2023-08-07T17:56:30;3.97;;;1.45;;
18867;SDS011;9563;49.240;9.088;2023-08-07T17:59:00;6.63;;;1.80;;
18867;SDS011;9563;49.240;9.088;2023-08-07T18:01:26;2.35;;;1.40;;
18867;SDS011;9563;49.240;9.088;2023-08-07T18:03:54;2.63;;;1.50;;
18867;SDS011;9563;49.240;9.088;2023-08-07T18:06:24;3.60;;;1.92;;
18867;SDS011;9563;49.240;9.088;2023-08-07T18:08:52;4.13;;;1.50;;
18867;SDS011;9563;49.240;9.088;2023-08-07T18:11:19;4.05;;;1.67;;
18867;SDS011;9563;49.240;9.088;2023-08-07T18:13:46;4.38;;;1.50;;
18867;SDS011;9563;49.240;9.088;2023-08-07T18:16:15;3.13;;;1.48;;
18867;SDS011;9563;49.240;9.088;2023-08-07T18:18:42;1.70;;;1.23;;
18867;SDS011;9563;49.240;9.088;2023-08-07T18:21:09;3.70;;;1.52;;
18867;SDS011;9563;49.240;9.088;2023-08-07T18:23:36;2.15;;;1.40;;
18867;SDS011;9563;49.240;9.088;2023-08-07T18:26:03;2.85;;;1.50;;
18867;SDS011;9563;49.240;9.088;2023-08-07T18:28:30;3.63;;;1.45;;
18867;SDS011;9563;49.240;9.088;2023-08-07T18:30:57;2.67;;;1.27;;
18867;SDS011;9563;49.240;9.088;2023-08-07T18:33:26;2.72;;;1.50;;
18867;SDS011;9563;49.240;9.088;2023-08-07T18:35:52;2.22;;;1.50;;
18867;SDS011;9563;49.240;9.088;2023-08-07T18:38:24;1.83;;;1.42;;
18867;SDS011;9563;49.240;9.088;2023-08-07T18:40:51;1.75;;;1.20;;
18867;SDS011;9563;49.240;9.088;2023-08-07T18:43:19;4.78;;;1.58;;
18867;SDS011;9563;49.240;9.088;2023-08-07T18:45:45;2.00;;;1.25;;
18867;SDS011;9563;49.240;9.088;2023-08-07T18:48:12;3.35;;;1.30;;
18867;SDS011;9563;49.240;9.088;2023-08-07T18:50:41;3.28;;;1.35;;
18867;SDS011;9563;49.240;9.088;2023-08-07T18:53:08;3.50;;;1.75;;
18867;SDS011;9563;49.240;9.088;2023-08-07T18:55:35;3.65;;;1.58;;
18867;SDS011;9563;49.240;9.088;2023-08-07T18:58:02;2.63;;;1.40;;
18867;SDS011;9563;49.240;9.088;2023-08-07T19:00:29;2.97;;;2.10;;
18867;SDS011;9563;49.240;9.088;2023-08-07T19:02:56;4.13;;;1.65;;